Terminal Aerodrome Forecast
Issued by NWS

Home | Current Version | Previous Version | Text Only | Print | Product List | Glossary On
Versions: 1 2 3 4 5 6 7 8 9 10 11 12 13 14 15 16 17
000
FTUS45 KTFX 051725
TAFHVR
TAF
KHVR 051725Z 0518/0618 31015G25KT P6SM VCSH SCT015 OVC024
     FM052300 30012KT P6SM SCT020 OVC035
     FM061500 30010KT P6SM VCSH OVC025=

USA.gov is the U.S. government's official web portal to all federal, state and local government web resources and services.